createdAt,value
2023-03-17T00:00:48.360Z,34.60
2023-03-17T00:03:25.938Z,33.00
2023-03-17T00:05:55.240Z,30.80
2023-03-17T00:08:37.206Z,32.40
2023-03-17T00:11:14.914Z,29.70
2023-03-17T00:13:44.665Z,31.20
2023-03-17T00:16:20.164Z,30.40
2023-03-17T00:18:50.510Z,33.70
2023-03-17T00:21:26.109Z,34.10
2023-03-17T00:23:55.440Z,34.10
2023-03-17T00:26:24.264Z,35.70
2023-03-17T00:28:54.784Z,34.90
2023-03-17T00:31:25.552Z,34.40
2023-03-17T00:33:55.213Z,35.50
2023-03-17T00:36:28.068Z,39.30
2023-03-17T00:38:56.417Z,36.60
2023-03-17T00:41:27.350Z,37.40
2023-03-17T00:43:55.664Z,38.80
2023-03-17T00:46:35.469Z,37.50
2023-03-17T00:49:14.313Z,38.70
2023-03-17T00:51:43.877Z,40.50
2023-03-17T00:54:13.771Z,39.50
2023-03-17T00:56:42.376Z,42.90
2023-03-17T00:59:20.647Z,43.60
2023-03-17T01:01:49.068Z,41.80
2023-03-17T01:04:17.304Z,41.40
2023-03-17T01:06:49.410Z,41.70
2023-03-17T01:09:24.251Z,42.60
2023-03-17T01:11:53.138Z,40.00
2023-03-17T01:14:21.725Z,39.90
2023-03-17T01:16:49.845Z,38.00
2023-03-17T01:19:18.098Z,37.40
2023-03-17T01:21:48.137Z,39.70
2023-03-17T01:24:16.214Z,39.70
2023-03-17T01:26:44.720Z,37.70
2023-03-17T01:29:13.929Z,40.90
2023-03-17T01:31:42.247Z,44.00
2023-03-17T01:34:11.616Z,43.90
2023-03-17T01:36:40.635Z,42.50
2023-03-17T01:39:09.392Z,40.80
2023-03-17T01:41:40.092Z,41.80
2023-03-17T01:44:17.028Z,41.50
2023-03-17T01:46:47.503Z,38.90
2023-03-17T01:49:19.471Z,39.80
2023-03-17T01:51:53.515Z,40.50
2023-03-17T01:54:24.703Z,40.90
2023-03-17T01:56:57.500Z,38.90
2023-03-17T01:59:31.763Z,35.30
2023-03-17T02:02:05.772Z,39.20
2023-03-17T02:04:34.642Z,38.20
2023-03-17T02:07:05.157Z,35.50
2023-03-17T02:09:34.347Z,39.40
2023-03-17T02:12:05.381Z,36.10
2023-03-17T02:14:34.200Z,38.10
2023-03-17T02:17:03.999Z,36.70
2023-03-17T02:19:32.090Z,37.10
2023-03-17T02:22:00.828Z,37.50
2023-03-17T02:24:41.525Z,38.90
2023-03-17T02:27:34.891Z,36.60
2023-03-17T02:30:04.948Z,36.80
2023-03-17T02:32:36.611Z,36.60
2023-03-17T02:35:07.229Z,37.20
2023-03-17T02:37:38.291Z,37.90
2023-03-17T02:40:07.902Z,36.60
2023-03-17T02:42:36.694Z,36.60
2023-03-17T02:45:06.548Z,36.20
2023-03-17T02:47:34.971Z,34.70
2023-03-17T02:50:04.857Z,38.80
2023-03-17T02:52:33.303Z,36.00
2023-03-17T02:55:01.416Z,38.30
2023-03-17T02:57:29.468Z,38.30
2023-03-17T02:59:57.626Z,37.50
2023-03-17T03:02:25.727Z,37.50
2023-03-17T03:04:54.277Z,34.20
2023-03-17T03:07:22.972Z,37.60
2023-03-17T03:09:51.327Z,35.40
2023-03-17T03:12:19.407Z,37.50
2023-03-17T03:14:47.714Z,39.00
2023-03-17T03:17:16.539Z,38.60
2023-03-17T03:19:44.979Z,38.60
2023-03-17T03:22:13.236Z,38.90
2023-03-17T03:24:41.736Z,36.40
2023-03-17T03:27:09.951Z,37.10
2023-03-17T03:29:38.368Z,36.00
2023-03-17T03:32:07.347Z,36.70
2023-03-17T03:34:35.619Z,37.80
2023-03-17T03:37:03.792Z,37.10
2023-03-17T03:39:32.003Z,37.50
2023-03-17T03:42:00.097Z,35.30
2023-03-17T03:44:28.268Z,37.60
2023-03-17T03:46:56.291Z,35.60
2023-03-17T03:49:25.608Z,35.30
2023-03-17T03:51:53.774Z,37.40
2023-03-17T03:54:22.688Z,34.00
2023-03-17T03:56:50.793Z,33.60
2023-03-17T03:59:18.966Z,34.20
2023-03-17T04:01:47.090Z,31.60
2023-03-17T04:04:15.507Z,31.50
2023-03-17T04:06:43.758Z,29.50
2023-03-17T04:09:12.730Z,31.80
2023-03-17T04:11:40.876Z,29.00
2023-03-17T04:14:09.074Z,29.10
2023-03-17T04:16:37.290Z,28.90
2023-03-17T04:19:05.424Z,28.60
2023-03-17T04:21:33.573Z,28.40
2023-03-17T04:24:01.608Z,24.80
2023-03-17T04:26:29.618Z,25.60
2023-03-17T04:28:58.652Z,26.60
2023-03-17T04:31:26.764Z,25.80
2023-03-17T04:33:54.884Z,27.50
2023-03-17T04:36:24.467Z,27.90
2023-03-17T04:38:52.790Z,27.60
2023-03-17T04:41:21.385Z,27.60
2023-03-17T04:43:49.680Z,27.40
2023-03-17T04:46:17.719Z,27.80
2023-03-17T04:48:45.782Z,28.80
2023-03-17T04:51:14.011Z,27.60
2023-03-17T04:53:42.060Z,26.50
2023-03-17T04:56:10.718Z,27.20
2023-03-17T04:58:39.832Z,25.80
2023-03-17T05:01:08.505Z,26.40
2023-03-17T05:03:36.697Z,26.40
2023-03-17T05:06:06.156Z,26.00
2023-03-17T05:08:34.420Z,24.90
2023-03-17T05:11:02.797Z,27.10
2023-03-17T05:13:31.062Z,25.30
2023-03-17T05:16:04.697Z,26.70
2023-03-17T05:18:37.261Z,24.70
2023-03-17T05:21:06.361Z,25.70
2023-03-17T05:23:35.200Z,24.80
2023-03-17T05:26:03.345Z,25.80
2023-03-17T05:28:32.489Z,23.60
2023-03-17T05:31:00.833Z,24.60
2023-03-17T05:33:29.173Z,24.50
2023-03-17T05:35:57.521Z,26.30
2023-03-17T05:38:25.892Z,24.60
2023-03-17T05:40:54.572Z,22.60
2023-03-17T05:43:22.704Z,24.70
2023-03-17T05:45:50.878Z,22.90
2023-03-17T05:48:19.148Z,25.80
2023-03-17T05:50:47.670Z,25.50
2023-03-17T05:53:16.289Z,25.00
2023-03-17T05:55:44.856Z,23.40
2023-03-17T05:58:15.594Z,22.80
2023-03-17T06:00:44.310Z,24.50
2023-03-17T06:03:12.849Z,20.90
2023-03-17T06:05:41.404Z,24.20
2023-03-17T06:08:10.327Z,20.60
2023-03-17T06:10:38.374Z,21.00
2023-03-17T06:13:06.471Z,20.80
2023-03-17T06:15:36.943Z,20.40
2023-03-17T06:18:05.863Z,21.90
2023-03-17T06:20:35.078Z,21.80
2023-03-17T06:23:05.607Z,21.10
2023-03-17T06:25:35.792Z,19.90
2023-03-17T06:28:06.487Z,20.30
2023-03-17T06:30:37.551Z,20.20
2023-03-17T06:33:08.274Z,24.00
2023-03-17T06:35:39.865Z,20.60
2023-03-17T06:38:08.125Z,22.50
2023-03-17T06:40:37.052Z,20.50
2023-03-17T06:43:05.261Z,19.70
2023-03-17T06:45:33.685Z,18.50
2023-03-17T06:48:02.321Z,17.60
2023-03-17T06:50:30.440Z,17.90
2023-03-17T06:52:58.620Z,19.10
2023-03-17T06:55:27.392Z,18.40
2023-03-17T06:57:55.675Z,16.80
2023-03-17T07:00:23.860Z,17.10
2023-03-17T07:02:52.664Z,16.50
2023-03-17T07:05:20.941Z,17.70
2023-03-17T07:07:50.139Z,14.80
2023-03-17T07:10:18.744Z,16.00
2023-03-17T07:12:47.017Z,15.70
2023-03-17T07:15:15.603Z,16.30
2023-03-17T07:17:43.648Z,15.50
2023-03-17T07:20:12.063Z,13.50
2023-03-17T07:22:40.952Z,13.90
2023-03-17T07:25:09.854Z,14.10
2023-03-17T07:27:38.500Z,12.80
2023-03-17T07:30:07.522Z,13.80
2023-03-17T07:32:36.300Z,12.00
2023-03-17T07:35:05.562Z,9.80
2023-03-17T07:37:33.892Z,11.30
2023-03-17T07:40:02.379Z,9.60
2023-03-17T07:42:30.476Z,10.30
2023-03-17T07:44:58.581Z,11.20
2023-03-17T07:47:28.983Z,10.90
2023-03-17T07:49:57.418Z,11.10
2023-03-17T07:52:25.630Z,9.90
2023-03-17T07:54:53.977Z,9.80
2023-03-17T07:57:22.453Z,10.80
2023-03-17T07:59:50.787Z,11.00
2023-03-17T08:02:19.672Z,11.10
2023-03-17T08:04:48.129Z,11.80
2023-03-17T08:07:16.498Z,10.10
2023-03-17T08:09:46.985Z,10.80
2023-03-17T08:12:15.236Z,10.80
2023-03-17T08:14:43.582Z,9.40
2023-03-17T08:17:13.604Z,10.60
2023-03-17T08:19:42.439Z,8.80
2023-03-17T08:22:10.948Z,8.20
2023-03-17T08:24:41.199Z,8.70
2023-03-17T08:27:09.650Z,7.60
2023-03-17T08:29:39.723Z,7.70
2023-03-17T08:32:08.819Z,7.40
2023-03-17T08:34:38.133Z,7.50
2023-03-17T08:37:10.040Z,7.10
2023-03-17T08:39:39.517Z,6.60
2023-03-17T08:42:08.314Z,6.40
2023-03-17T08:44:36.539Z,6.50
2023-03-17T08:47:05.799Z,6.10
2023-03-17T08:49:36.157Z,5.80
2023-03-17T08:52:04.709Z,6.70
2023-03-17T08:54:34.662Z,6.40
2023-03-17T08:57:04.127Z,6.30
2023-03-17T08:59:33.672Z,6.30
2023-03-17T09:02:01.754Z,5.30
2023-03-17T09:04:30.358Z,6.00
2023-03-17T09:07:03.647Z,5.30
2023-03-17T09:09:35.294Z,5.40
2023-03-17T09:12:06.342Z,4.90
2023-03-17T09:14:42.961Z,5.70
2023-03-17T09:17:14.497Z,5.50
2023-03-17T09:19:43.651Z,5.10
2023-03-17T09:22:14.478Z,5.20
2023-03-17T09:24:42.710Z,5.20
2023-03-17T09:27:11.200Z,5.40
2023-03-17T09:29:39.672Z,5.40
2023-03-17T09:32:08.806Z,5.00
2023-03-17T09:34:36.979Z,4.30
2023-03-17T09:37:05.190Z,4.90
2023-03-17T09:39:33.553Z,4.90
2023-03-17T09:42:19.777Z,4.90
2023-03-17T09:45:15.380Z,5.10
2023-03-17T09:50:22.388Z,4.60
2023-03-17T09:52:52.430Z,4.90
2023-03-17T09:55:29.006Z,4.80
2023-03-17T09:58:00.778Z,5.40
2023-03-17T10:00:31.156Z,5.00
2023-03-17T10:03:00.214Z,4.10
2023-03-17T10:05:35.180Z,5.20
2023-03-17T10:08:31.774Z,4.50
2023-03-17T10:11:35.289Z,4.10
2023-03-17T10:14:03.848Z,4.10
2023-03-17T10:17:01.885Z,4.20
2023-03-17T10:19:40.737Z,4.80
2023-03-17T10:22:23.706Z,4.40
2023-03-17T10:24:57.726Z,4.10
2023-03-17T10:27:34.479Z,4.30
2023-03-17T10:30:03.654Z,4.20
2023-03-17T10:32:38.018Z,4.40
2023-03-17T10:35:07.741Z,4.40
2023-03-17T10:37:36.756Z,3.90
2023-03-17T10:40:30.610Z,4.50
2023-03-17T10:43:08.035Z,4.10
2023-03-17T10:45:44.008Z,4.30
2023-03-17T10:48:19.191Z,4.90
2023-03-17T10:50:49.541Z,4.40
2023-03-17T10:53:28.214Z,4.00
2023-03-17T10:56:25.483Z,3.80
2023-03-17T10:59:17.995Z,4.30
2023-03-17T11:01:52.250Z,4.80
2023-03-17T11:04:35.155Z,4.30
2023-03-17T11:07:15.524Z,3.20
2023-03-17T11:09:48.953Z,3.40
2023-03-17T11:12:25.678Z,3.90
2023-03-17T11:15:03.379Z,3.90
2023-03-17T11:17:38.480Z,3.90
2023-03-17T11:20:43.439Z,3.30
2023-03-17T11:23:37.528Z,3.60
2023-03-17T11:26:16.830Z,3.20
2023-03-17T11:29:05.931Z,3.60
2023-03-17T11:31:43.851Z,3.00
2023-03-17T11:34:35.471Z,3.30
2023-03-17T11:37:18.918Z,3.90
2023-03-17T11:40:04.352Z,3.30
2023-03-17T11:42:39.656Z,3.30
2023-03-17T11:45:26.720Z,3.50
2023-03-17T11:48:08.748Z,2.90
2023-03-17T11:50:49.547Z,3.10
2023-03-17T11:53:18.186Z,3.60
2023-03-17T11:56:30.823Z,4.20
2023-03-17T11:59:02.133Z,3.50
2023-03-17T12:01:42.834Z,3.20
2023-03-17T12:04:22.080Z,3.30
2023-03-17T12:06:58.004Z,3.30
2023-03-17T12:09:46.531Z,4.10
2023-03-17T12:12:22.881Z,3.90
2023-03-17T12:14:54.193Z,3.40
2023-03-17T12:17:30.459Z,3.50
2023-03-17T12:20:34.078Z,3.40
2023-03-17T12:23:21.358Z,4.00
2023-03-17T12:29:09.313Z,3.60
2023-03-17T12:31:52.856Z,3.30
2023-03-17T12:34:28.884Z,2.80
2023-03-17T12:36:59.487Z,3.30
2023-03-17T12:39:37.810Z,3.50
2023-03-17T12:42:27.451Z,3.70
2023-03-17T12:45:17.069Z,3.70
2023-03-17T12:48:06.069Z,2.90
2023-03-17T12:50:43.021Z,3.50
2023-03-17T12:53:32.845Z,3.50
2023-03-17T12:56:50.687Z,3.00
2023-03-17T12:59:26.257Z,4.80
2023-03-17T13:02:44.684Z,3.40
2023-03-17T13:05:19.816Z,3.20
2023-03-17T13:07:57.585Z,4.50
2023-03-17T13:10:48.775Z,3.30
2023-03-17T13:13:41.061Z,3.20
2023-03-17T13:16:39.545Z,3.40
2023-03-17T13:19:16.119Z,3.20
2023-03-17T13:22:14.355Z,3.40
2023-03-17T13:24:47.515Z,3.10
2023-03-17T13:27:38.844Z,4.00
2023-03-17T13:30:32.304Z,3.70
2023-03-17T13:33:31.076Z,3.30
2023-03-17T13:42:25.377Z,3.50
2023-03-17T13:45:37.732Z,3.50
2023-03-17T13:48:41.733Z,3.40
2023-03-17T13:51:26.374Z,3.50
2023-03-17T13:54:29.838Z,4.30
2023-03-17T13:57:26.797Z,3.80
2023-03-17T14:00:37.708Z,3.60
2023-03-17T14:03:35.978Z,3.60
2023-03-17T14:06:06.728Z,3.80
2023-03-17T14:09:08.361Z,3.60
2023-03-17T14:11:41.554Z,3.90
2023-03-17T14:14:32.661Z,4.00
2023-03-17T14:17:35.499Z,4.00
2023-03-17T14:20:19.881Z,3.60
2023-03-17T14:22:56.675Z,3.70
2023-03-17T14:25:39.048Z,4.00
2023-03-17T14:28:15.999Z,4.70
2023-03-17T14:30:56.914Z,3.70
2023-03-17T14:33:34.682Z,4.20
2023-03-17T14:36:06.399Z,4.00
2023-03-17T14:38:37.645Z,3.40
2023-03-17T14:41:07.532Z,3.70
2023-03-17T14:43:36.757Z,3.80
2023-03-17T14:46:13.249Z,3.40
2023-03-17T14:48:43.741Z,4.00
2023-03-17T14:51:23.555Z,3.60
2023-03-17T14:53:53.874Z,3.90
2023-03-17T14:56:27.460Z,3.70
2023-03-17T14:59:06.484Z,3.60
2023-03-17T15:01:42.532Z,3.40
2023-03-17T15:04:18.061Z,3.50
2023-03-17T15:06:52.023Z,3.60
2023-03-17T15:09:29.038Z,3.70
2023-03-17T15:12:07.211Z,3.90
2023-03-17T15:14:38.996Z,3.30
2023-03-17T15:17:27.630Z,4.20
2023-03-17T15:20:00.466Z,3.60
2023-03-17T15:22:34.554Z,3.30
2023-03-17T15:25:15.004Z,4.30
2023-03-17T15:27:43.820Z,6.60
2023-03-17T15:30:12.798Z,5.70
2023-03-17T15:32:41.019Z,5.20
2023-03-17T15:35:13.676Z,4.30
2023-03-17T15:37:42.275Z,5.20
2023-03-17T15:40:11.280Z,4.00
2023-03-17T15:42:39.843Z,4.80
2023-03-17T15:45:08.875Z,7.70
2023-03-17T15:47:39.999Z,5.90
2023-03-17T15:50:25.674Z,5.90
2023-03-17T15:52:55.707Z,5.00
2023-03-17T15:55:31.298Z,5.20
2023-03-17T15:58:00.125Z,4.60
2023-03-17T16:00:30.206Z,4.80
2023-03-17T16:03:22.053Z,4.60
2023-03-17T16:05:50.423Z,9.30
2023-03-17T16:08:19.105Z,29.90
2023-03-17T16:10:47.552Z,15.80
2023-03-17T16:13:15.785Z,16.80
2023-03-17T16:15:50.310Z,10.30
2023-03-17T16:18:28.515Z,24.60
2023-03-17T16:20:56.919Z,24.00
2023-03-17T16:23:28.730Z,17.20
2023-03-17T16:26:13.693Z,22.10
2023-03-17T16:28:44.959Z,29.60
2023-03-17T16:31:19.944Z,19.00
2023-03-17T16:33:49.377Z,20.30
2023-03-17T16:36:19.517Z,17.60
2023-03-17T16:38:49.641Z,13.30
2023-03-17T16:41:24.445Z,13.90
2023-03-17T16:43:58.180Z,9.70
2023-03-17T16:46:26.558Z,10.00
2023-03-17T16:48:56.213Z,9.60
2023-03-17T16:51:25.060Z,12.20
2023-03-17T16:53:53.285Z,8.70
2023-03-17T16:56:23.078Z,7.30
2023-03-17T16:58:51.265Z,7.20
2023-03-17T17:01:26.155Z,9.80
2023-03-17T17:03:54.756Z,7.80
2023-03-17T17:06:23.981Z,8.60
2023-03-17T17:08:52.464Z,5.60
2023-03-17T17:11:20.886Z,5.70
2023-03-17T17:13:49.395Z,5.60
2023-03-17T17:16:32.162Z,5.20
2023-03-17T17:19:01.294Z,5.60
2023-03-17T17:21:31.149Z,4.60
2023-03-17T17:23:59.316Z,5.00
2023-03-17T17:26:27.491Z,5.90
2023-03-17T17:28:55.648Z,5.30
2023-03-17T17:31:23.691Z,6.50
2023-03-17T17:33:51.903Z,6.30
2023-03-17T17:36:19.929Z,6.00
2023-03-17T17:38:48.026Z,7.50
2023-03-17T17:41:17.105Z,32.00
2023-03-17T17:43:46.239Z,56.00
2023-03-17T17:46:21.316Z,15.00
2023-03-17T17:48:50.154Z,15.80
2023-03-17T17:51:18.279Z,13.90
2023-03-17T17:53:46.304Z,20.30
2023-03-17T17:56:16.801Z,16.60
2023-03-17T17:58:45.234Z,10.20
2023-03-17T18:01:16.863Z,7.30
2023-03-17T18:03:45.697Z,6.70
2023-03-17T18:06:14.256Z,5.70
2023-03-17T18:08:43.537Z,5.60
2023-03-17T18:11:12.322Z,5.40
2023-03-17T18:13:41.010Z,5.70
2023-03-17T18:16:15.054Z,5.30
2023-03-17T18:18:45.640Z,5.80
2023-03-17T18:21:14.078Z,6.30
2023-03-17T18:23:46.980Z,6.70
2023-03-17T18:26:16.791Z,6.30
2023-03-17T18:28:45.225Z,12.70
2023-03-17T18:31:18.803Z,7.80
2023-03-17T18:33:49.359Z,6.60
2023-03-17T18:36:18.968Z,6.20
2023-03-17T18:38:47.135Z,7.10
2023-03-17T18:41:15.424Z,7.10
2023-03-17T18:43:44.911Z,9.90
2023-03-17T18:46:13.438Z,11.50
2023-03-17T18:48:41.879Z,10.70
2023-03-17T18:51:10.341Z,8.50
2023-03-17T18:53:39.244Z,6.50
2023-03-17T18:56:07.762Z,6.80
2023-03-17T18:58:36.457Z,6.50
2023-03-17T19:01:04.876Z,7.10
2023-03-17T19:03:33.757Z,9.40
2023-03-17T19:06:13.916Z,11.90
2023-03-17T19:08:43.264Z,7.90
2023-03-17T19:11:13.934Z,7.40
2023-03-17T19:13:42.752Z,8.10
2023-03-17T19:16:11.584Z,7.60
2023-03-17T19:18:42.215Z,7.60
2023-03-17T19:21:11.958Z,8.70
2023-03-17T19:23:41.458Z,7.40
2023-03-17T19:26:10.450Z,8.10
2023-03-17T19:28:38.814Z,7.70
2023-03-17T19:31:07.480Z,7.00
2023-03-17T19:33:36.481Z,7.80
2023-03-17T19:36:11.603Z,7.00
2023-03-17T19:38:40.997Z,6.90
2023-03-17T19:41:09.316Z,8.00
2023-03-17T19:43:41.109Z,7.10
2023-03-17T19:46:11.407Z,7.60
2023-03-17T19:48:40.704Z,7.60
2023-03-17T19:51:09.404Z,9.30
2023-03-17T19:53:37.805Z,7.20
2023-03-17T19:56:06.730Z,6.80
2023-03-17T19:58:34.929Z,6.80
2023-03-17T20:01:04.878Z,6.30
2023-03-17T20:03:33.802Z,6.50
2023-03-17T20:06:06.058Z,8.10
2023-03-17T20:08:35.803Z,8.40
2023-03-17T20:11:05.996Z,7.20
2023-03-17T20:13:35.864Z,6.90
2023-03-17T20:16:05.904Z,7.90
2023-03-17T20:18:35.085Z,6.50
2023-03-17T20:21:11.669Z,8.20
2023-03-17T20:23:39.863Z,7.50
2023-03-17T20:26:09.280Z,8.50
2023-03-17T20:28:38.725Z,8.90
2023-03-17T20:31:08.046Z,9.00
2023-03-17T20:33:36.458Z,7.70
2023-03-17T20:36:05.074Z,9.50
2023-03-17T20:38:36.877Z,8.60
2023-03-17T20:41:12.548Z,7.40
2023-03-17T20:43:41.766Z,7.20
2023-03-17T20:46:18.823Z,6.60
2023-03-17T20:48:52.078Z,7.80
2023-03-17T20:51:20.430Z,8.60
2023-03-17T20:53:49.824Z,8.30
2023-03-17T20:56:20.349Z,7.40
2023-03-17T20:58:50.077Z,11.00
2023-03-17T21:01:21.182Z,16.00
2023-03-17T21:03:50.316Z,47.30
2023-03-17T21:06:18.895Z,79.00
2023-03-17T21:08:46.985Z,20.20
2023-03-17T21:11:17.654Z,11.50
2023-03-17T21:13:47.094Z,13.20
2023-03-17T21:16:19.029Z,10.40
2023-03-17T21:18:47.871Z,8.10
2023-03-17T21:21:17.236Z,9.40
2023-03-17T21:23:45.821Z,10.50
2023-03-17T21:26:14.983Z,8.80
2023-03-17T21:28:43.888Z,7.90
2023-03-17T21:31:12.884Z,8.60
2023-03-17T21:33:42.238Z,10.70
2023-03-17T21:36:11.180Z,8.70
2023-03-17T21:38:39.304Z,8.10
2023-03-17T21:41:22.391Z,8.30
2023-03-17T21:43:50.641Z,9.70
2023-03-17T21:46:18.777Z,8.90
2023-03-17T21:48:46.917Z,7.70
2023-03-17T21:51:15.194Z,13.40
2023-03-17T21:53:43.561Z,8.00
2023-03-17T21:56:12.628Z,24.40
2023-03-17T21:58:41.236Z,11.30
2023-03-17T22:01:09.398Z,9.40
2023-03-17T22:03:39.587Z,9.10
2023-03-17T22:06:09.856Z,10.30
2023-03-17T22:08:38.146Z,25.40
2023-03-17T22:11:08.097Z,12.40
2023-03-17T22:13:36.741Z,9.50
2023-03-17T22:16:05.387Z,8.90
2023-03-17T22:18:33.557Z,9.40
2023-03-17T22:21:01.821Z,9.00
2023-03-17T22:23:30.404Z,10.70
2023-03-17T22:25:58.715Z,11.90
2023-03-17T22:28:26.862Z,17.30
2023-03-17T22:30:54.949Z,10.70
2023-03-17T22:33:23.302Z,11.80
2023-03-17T22:35:51.489Z,11.50
2023-03-17T22:38:19.725Z,17.00
2023-03-17T22:40:47.791Z,32.30
2023-03-17T22:43:15.972Z,33.80
2023-03-17T22:45:44.057Z,18.30
2023-03-17T22:48:12.098Z,13.90
2023-03-17T22:50:42.631Z,34.00
2023-03-17T22:53:10.740Z,42.20
2023-03-17T22:55:39.066Z,21.30
2023-03-17T22:58:07.170Z,12.20
2023-03-17T23:00:36.235Z,11.30
2023-03-17T23:03:04.425Z,17.40
2023-03-17T23:05:33.010Z,12.80
2023-03-17T23:08:01.254Z,11.20
2023-03-17T23:10:29.801Z,10.10
2023-03-17T23:12:58.276Z,12.00
2023-03-17T23:15:26.695Z,11.50
2023-03-17T23:17:54.878Z,10.60
2023-03-17T23:20:23.213Z,10.80
2023-03-17T23:22:51.519Z,9.90
2023-03-17T23:25:20.133Z,10.70
2023-03-17T23:27:49.110Z,15.20
2023-03-17T23:30:18.065Z,10.90
2023-03-17T23:32:46.898Z,16.20
2023-03-17T23:35:15.965Z,15.20
2023-03-17T23:37:44.054Z,10.10
2023-03-17T23:40:16.060Z,14.90
2023-03-17T23:42:46.085Z,16.30
2023-03-17T23:45:18.167Z,10.70
2023-03-17T23:47:47.397Z,9.90
2023-03-17T23:50:16.140Z,9.30
2023-03-17T23:52:45.031Z,18.70
2023-03-17T23:55:13.233Z,15.10
2023-03-17T23:57:41.998Z,10.30
